Terminal Aerodrome Forecast
Issued by NWS Omaha/Valley, NE

Home | Current Version | Previous Version | Text Only | Print | Product List | Glossary On
Versions: 1 2 3 4 5 6 7 8 9 10 11 12 13 14 15 16 17 18 19 20 21 22 23 24 25 26 27
000
FTUS43 KOAX 200647 AAA
TAFOMA
TAF AMD
KOMA 200647Z 2007/2106 00000KT 3SM BR SCT003 OVC015
      TEMPO 2007/2009 1/2SM FG OVC003
     FM200900 00000KT 1/2SM FG OVC002
     FM201600 13005KT 1SM BR OVC004
     FM201800 12006KT 3SM BR OVC008
     FM210000 11006KT 1SM -DZ BR OVC003=

USA.gov is the U.S. government's official web portal to all federal, state and local government web resources and services.